AUA25M LOWW-EDDH
Flight info
| Callsign | AUA25M |
|---|---|
| Flight time | 1h 31m |
| Altitude | 36000 |
| Route | LANUX DCT LALUK DCT MILGU DCT SOGMA M748 RARUP RARUP6A |
| Aircraft | A321/M-SDE3FGHIRWY/LB1 |
Departure
| Time | 2026-05-07 13:22 |
|---|---|
| Airport | Vienna International Airport (LOWW) |
Arrival
| Time | 2026-05-07 14:53 |
|---|---|
| Airport | Hamburg Helmut Schmidt Airport (EDDH) |
| Time | Latitude | Longitude | Altitude | Speed | Heading |
|---|---|---|---|---|---|
| 2026-05-07 12:55 | 48.11688 | 16.56840 | 608 ft | 0 kts | 27° |
| 2026-05-07 13:14 | 48.11683 | 16.56836 | 608 ft | 2 kts | 27° |
| 2026-05-07 13:15 | 48.11670 | 16.56826 | 608 ft | 2 kts | 27° |
| 2026-05-07 13:15 | 48.11656 | 16.56816 | 608 ft | 2 kts | 27° |
| 2026-05-07 13:15 | 48.11643 | 16.56805 | 608 ft | 2 kts | 44° |
| 2026-05-07 13:15 | 48.11634 | 16.56787 | 608 ft | 2 kts | 62° |
| 2026-05-07 13:16 | 48.11629 | 16.56765 | 608 ft | 2 kts | 97° |
| 2026-05-07 13:16 | 48.11632 | 16.56750 | 608 ft | 1 kts | 122° |
| 2026-05-07 13:16 | 48.11633 | 16.56748 | 608 ft | 0 kts | 122° |
| 2026-05-07 13:18 | 48.11633 | 16.56749 | 608 ft | 0 kts | 122° |
| 2026-05-07 13:18 | 48.11625 | 16.56770 | 608 ft | 5 kts | 115° |
| 2026-05-07 13:19 | 48.11599 | 16.56854 | 608 ft | 7 kts | 115° |
| 2026-05-07 13:19 | 48.11573 | 16.56939 | 608 ft | 11 kts | 116° |
| 2026-05-07 13:19 | 48.11532 | 16.57064 | 608 ft | 13 kts | 116° |
| 2026-05-07 13:19 | 48.11488 | 16.57198 | 608 ft | 14 kts | 116° |
| 2026-05-07 13:20 | 48.11445 | 16.57330 | 608 ft | 14 kts | 117° |
| 2026-05-07 13:20 | 48.11362 | 16.57365 | 608 ft | 14 kts | 203° |
| 2026-05-07 13:20 | 48.11272 | 16.57299 | 608 ft | 14 kts | 206° |
| 2026-05-07 13:20 | 48.11176 | 16.57229 | 608 ft | 15 kts | 205° |
| 2026-05-07 13:21 | 48.11080 | 16.57157 | 608 ft | 15 kts | 221° |
| 2026-05-07 13:21 | 48.11084 | 16.57011 | 608 ft | 19 kts | 296° |
| 2026-05-07 13:21 | 48.11243 | 16.56521 | 608 ft | 87 kts | 296° |
| 2026-05-07 13:21 | 48.11606 | 16.55410 | 608 ft | 148 kts | 296° |
| 2026-05-07 13:22 | 48.12112 | 16.53824 | 858 ft | 176 kts | 294° |
| 2026-05-07 13:22 | 48.12540 | 16.52173 | 1572 ft | 172 kts | 277° |
| 2026-05-07 13:22 | 48.12290 | 16.50392 | 2238 ft | 174 kts | 244° |
| 2026-05-07 13:22 | 48.11736 | 16.48697 | 2799 ft | 176 kts | 250° |
| 2026-05-07 13:23 | 48.11453 | 16.46915 | 3244 ft | 181 kts | 270° |
| 2026-05-07 13:23 | 48.11647 | 16.45033 | 3729 ft | 184 kts | 289° |
| 2026-05-07 13:23 | 48.12009 | 16.43179 | 4234 ft | 188 kts | 284° |
| 2026-05-07 13:23 | 48.12280 | 16.41144 | 4730 ft | 194 kts | 281° |
| 2026-05-07 13:24 | 48.12528 | 16.39034 | 5258 ft | 199 kts | 279° |
| 2026-05-07 13:24 | 48.12721 | 16.36952 | 5721 ft | 205 kts | 278° |
| 2026-05-07 13:24 | 48.12922 | 16.34668 | 6139 ft | 216 kts | 277° |
| 2026-05-07 13:24 | 48.13121 | 16.32384 | 6617 ft | 222 kts | 277° |
| 2026-05-07 13:25 | 48.13344 | 16.30020 | 6965 ft | 237 kts | 277° |
| 2026-05-07 13:25 | 48.13607 | 16.27476 | 7264 ft | 255 kts | 279° |
| 2026-05-07 13:25 | 48.13932 | 16.24789 | 7675 ft | 268 kts | 279° |
| 2026-05-07 13:25 | 48.14351 | 16.21987 | 8192 ft | 278 kts | 290° |
| 2026-05-07 13:26 | 48.15522 | 16.19614 | 8769 ft | 288 kts | 322° |
| 2026-05-07 13:26 | 48.17324 | 16.18253 | 9462 ft | 291 kts | 335° |
| 2026-05-07 13:26 | 48.19188 | 16.17038 | 10162 ft | 292 kts | 334° |
| 2026-05-07 13:26 | 48.21079 | 16.15735 | 10673 ft | 300 kts | 332° |
| 2026-05-07 13:27 | 48.23020 | 16.14303 | 10971 ft | 316 kts | 331° |
| 2026-05-07 13:27 | 48.25025 | 16.12804 | 11316 ft | 328 kts | 331° |
| 2026-05-07 13:27 | 48.27103 | 16.11219 | 11911 ft | 332 kts | 329° |
| 2026-05-07 13:27 | 48.29194 | 16.09502 | 12558 ft | 334 kts | 328° |
| 2026-05-07 13:28 | 48.31247 | 16.07783 | 13173 ft | 336 kts | 328° |
| 2026-05-07 13:28 | 48.33313 | 16.06051 | 13776 ft | 339 kts | 328° |
| 2026-05-07 13:28 | 48.35396 | 16.04308 | 14346 ft | 342 kts | 327° |
| 2026-05-07 13:28 | 48.37481 | 16.02563 | 14882 ft | 345 kts | 327° |
| 2026-05-07 13:29 | 48.39645 | 16.00754 | 15420 ft | 349 kts | 327° |
| 2026-05-07 13:29 | 48.41815 | 15.98938 | 15948 ft | 353 kts | 327° |
| 2026-05-07 13:29 | 48.43959 | 15.97146 | 16444 ft | 357 kts | 327° |
| 2026-05-07 13:29 | 48.46191 | 15.95278 | 16944 ft | 360 kts | 327° |
| 2026-05-07 13:30 | 48.48482 | 15.93360 | 17453 ft | 364 kts | 327° |
| 2026-05-07 13:30 | 48.50795 | 15.91419 | 17955 ft | 368 kts | 327° |
| 2026-05-07 13:30 | 48.53070 | 15.89510 | 18438 ft | 371 kts | 327° |
| 2026-05-07 13:30 | 48.55376 | 15.87575 | 18925 ft | 374 kts | 326° |
| 2026-05-07 13:31 | 48.57683 | 15.85636 | 19380 ft | 377 kts | 326° |
| 2026-05-07 13:31 | 48.59996 | 15.83688 | 19840 ft | 381 kts | 326° |
| 2026-05-07 13:31 | 48.62362 | 15.81696 | 20292 ft | 384 kts | 326° |
| 2026-05-07 13:31 | 48.64907 | 15.79548 | 20774 ft | 388 kts | 326° |
| 2026-05-07 13:32 | 48.67446 | 15.77405 | 21224 ft | 392 kts | 326° |
| 2026-05-07 13:32 | 48.69926 | 15.75308 | 21654 ft | 395 kts | 326° |
| 2026-05-07 13:32 | 48.72477 | 15.73147 | 22123 ft | 398 kts | 326° |
| 2026-05-07 13:32 | 48.74925 | 15.71073 | 22492 ft | 403 kts | 326° |
| 2026-05-07 13:33 | 48.77425 | 15.68952 | 22909 ft | 406 kts | 326° |
| 2026-05-07 13:33 | 48.79911 | 15.66842 | 23324 ft | 409 kts | 326° |
| 2026-05-07 13:33 | 48.82473 | 15.64664 | 23729 ft | 412 kts | 326° |
| 2026-05-07 13:33 | 48.85033 | 15.62485 | 23936 ft | 415 kts | 326° |
| 2026-05-07 13:34 | 48.87554 | 15.60338 | 23948 ft | 415 kts | 326° |
| 2026-05-07 13:34 | 48.92791 | 15.55871 | 23949 ft | 413 kts | 326° |
| 2026-05-07 13:34 | 48.95344 | 15.53687 | 23942 ft | 413 kts | 326° |
| 2026-05-07 13:35 | 48.97956 | 15.51450 | 23946 ft | 414 kts | 326° |
| 2026-05-07 13:35 | 49.00515 | 15.49254 | 23950 ft | 414 kts | 326° |
| 2026-05-07 13:35 | 49.03146 | 15.46994 | 24119 ft | 419 kts | 326° |
| 2026-05-07 13:35 | 49.05904 | 15.44622 | 24627 ft | 420 kts | 326° |
| 2026-05-07 13:36 | 49.08612 | 15.42295 | 25091 ft | 422 kts | 326° |
| 2026-05-07 13:36 | 49.11243 | 15.40029 | 25484 ft | 424 kts | 326° |
| 2026-05-07 13:36 | 49.13871 | 15.37762 | 25827 ft | 426 kts | 325° |
| 2026-05-07 13:36 | 49.16475 | 15.35512 | 26151 ft | 429 kts | 325° |
| 2026-05-07 13:37 | 49.19114 | 15.33228 | 26498 ft | 431 kts | 325° |
| 2026-05-07 13:37 | 49.21806 | 15.30895 | 26862 ft | 432 kts | 325° |
| 2026-05-07 13:37 | 49.24486 | 15.28572 | 27212 ft | 434 kts | 325° |
| 2026-05-07 13:37 | 49.27219 | 15.26200 | 27542 ft | 436 kts | 324° |
| 2026-05-07 13:38 | 49.29931 | 15.23843 | 27847 ft | 438 kts | 324° |
| 2026-05-07 13:38 | 49.32693 | 15.21439 | 28144 ft | 441 kts | 324° |
| 2026-05-07 13:38 | 49.35472 | 15.19017 | 28438 ft | 443 kts | 324° |
| 2026-05-07 13:38 | 49.38231 | 15.16609 | 28716 ft | 446 kts | 325° |
| 2026-05-07 13:39 | 49.41033 | 15.14161 | 29002 ft | 448 kts | 325° |
| 2026-05-07 13:39 | 49.43887 | 15.11665 | 29287 ft | 450 kts | 325° |
| 2026-05-07 13:39 | 49.46713 | 15.09190 | 29550 ft | 452 kts | 325° |
| 2026-05-07 13:39 | 49.49558 | 15.06693 | 29826 ft | 454 kts | 324° |
| 2026-05-07 13:40 | 49.52386 | 15.04209 | 30079 ft | 456 kts | 324° |
| 2026-05-07 13:40 | 49.55269 | 15.01673 | 30329 ft | 458 kts | 325° |
| 2026-05-07 13:40 | 49.58121 | 14.99160 | 30560 ft | 460 kts | 325° |
| 2026-05-07 13:40 | 49.61033 | 14.96590 | 30808 ft | 461 kts | 325° |
| 2026-05-07 13:41 | 49.63886 | 14.94068 | 31039 ft | 462 kts | 325° |
| 2026-05-07 13:41 | 49.66775 | 14.91512 | 31276 ft | 463 kts | 325° |
| 2026-05-07 13:41 | 49.69618 | 14.88995 | 31549 ft | 463 kts | 326° |
| 2026-05-07 13:41 | 49.72514 | 14.86428 | 31857 ft | 461 kts | 326° |
| 2026-05-07 13:42 | 49.75331 | 14.83927 | 32177 ft | 459 kts | 326° |
| 2026-05-07 13:42 | 49.78159 | 14.81412 | 32489 ft | 458 kts | 326° |
| 2026-05-07 13:42 | 49.80990 | 14.78892 | 32740 ft | 458 kts | 326° |
| 2026-05-07 13:42 | 49.83857 | 14.76336 | 32998 ft | 457 kts | 326° |
| 2026-05-07 13:43 | 49.86724 | 14.73775 | 33275 ft | 455 kts | 326° |
| 2026-05-07 13:43 | 49.89522 | 14.71274 | 33511 ft | 454 kts | 326° |
| 2026-05-07 13:43 | 49.92270 | 14.68812 | 33723 ft | 453 kts | 326° |
| 2026-05-07 13:43 | 49.95055 | 14.66313 | 33932 ft | 452 kts | 326° |
| 2026-05-07 13:44 | 49.97781 | 14.63864 | 34132 ft | 452 kts | 326° |
| 2026-05-07 13:44 | 50.00549 | 14.61376 | 34316 ft | 452 kts | 327° |
| 2026-05-07 13:44 | 50.03284 | 14.58914 | 34499 ft | 452 kts | 327° |
| 2026-05-07 13:44 | 50.06040 | 14.56430 | 34673 ft | 453 kts | 327° |
| 2026-05-07 13:45 | 50.08783 | 14.53954 | 34851 ft | 453 kts | 327° |
| 2026-05-07 13:45 | 50.11494 | 14.51502 | 35007 ft | 454 kts | 327° |
| 2026-05-07 13:45 | 50.14259 | 14.49000 | 35158 ft | 454 kts | 327° |
| 2026-05-07 13:45 | 50.17055 | 14.46466 | 35307 ft | 455 kts | 327° |
| 2026-05-07 13:46 | 50.19825 | 14.43952 | 35456 ft | 455 kts | 327° |
| 2026-05-07 13:46 | 50.22565 | 14.41463 | 35601 ft | 455 kts | 327° |
| 2026-05-07 13:46 | 50.25347 | 14.38931 | 35719 ft | 456 kts | 327° |
| 2026-05-07 13:46 | 50.28151 | 14.36377 | 35838 ft | 456 kts | 327° |
| 2026-05-07 13:47 | 50.30933 | 14.33837 | 35938 ft | 457 kts | 326° |
| 2026-05-07 13:47 | 50.36577 | 14.28677 | 35943 ft | 457 kts | 326° |
| 2026-05-07 13:48 | 50.42137 | 14.23577 | 35950 ft | 457 kts | 326° |
| 2026-05-07 13:48 | 50.47663 | 14.18496 | 35940 ft | 457 kts | 327° |
| 2026-05-07 13:49 | 50.53218 | 14.13373 | 35941 ft | 457 kts | 327° |
| 2026-05-07 13:49 | 50.58743 | 14.08265 | 35946 ft | 456 kts | 327° |
| 2026-05-07 13:50 | 50.64350 | 14.03066 | 35944 ft | 456 kts | 327° |
| 2026-05-07 13:50 | 50.69851 | 13.97947 | 35943 ft | 455 kts | 327° |
| 2026-05-07 13:51 | 50.75546 | 13.92633 | 35940 ft | 455 kts | 327° |
| 2026-05-07 13:51 | 50.81059 | 13.87369 | 35937 ft | 455 kts | 324° |
| 2026-05-07 13:52 | 50.86308 | 13.81732 | 35936 ft | 454 kts | 323° |
| 2026-05-07 13:52 | 50.91573 | 13.75971 | 35948 ft | 454 kts | 323° |
| 2026-05-07 13:53 | 50.96993 | 13.70032 | 35962 ft | 454 kts | 323° |
| 2026-05-07 13:53 | 51.02206 | 13.64314 | 35962 ft | 453 kts | 323° |
| 2026-05-07 13:54 | 51.07413 | 13.58586 | 35972 ft | 452 kts | 323° |
| 2026-05-07 13:54 | 51.12594 | 13.52871 | 35970 ft | 452 kts | 323° |
| 2026-05-07 13:55 | 51.17771 | 13.47144 | 35983 ft | 451 kts | 323° |
| 2026-05-07 13:55 | 51.22953 | 13.41398 | 35998 ft | 451 kts | 323° |
| 2026-05-07 13:56 | 51.28197 | 13.35568 | 35994 ft | 451 kts | 323° |
| 2026-05-07 13:56 | 51.33351 | 13.29821 | 35995 ft | 451 kts | 323° |
| 2026-05-07 13:57 | 51.38548 | 13.24006 | 36007 ft | 450 kts | 323° |
| 2026-05-07 13:57 | 51.43719 | 13.18204 | 36009 ft | 449 kts | 323° |
| 2026-05-07 13:58 | 51.48868 | 13.12410 | 36009 ft | 449 kts | 323° |
| 2026-05-07 13:58 | 51.54058 | 13.06552 | 36006 ft | 448 kts | 323° |
| 2026-05-07 13:59 | 51.59353 | 13.00761 | 36006 ft | 449 kts | 325° |
| 2026-05-07 13:59 | 51.64670 | 12.95296 | 36009 ft | 448 kts | 326° |
| 2026-05-07 14:00 | 51.70118 | 12.89691 | 36012 ft | 448 kts | 326° |
| 2026-05-07 14:00 | 51.75718 | 12.83898 | 36010 ft | 448 kts | 326° |
| 2026-05-07 14:01 | 51.81052 | 12.78357 | 36018 ft | 448 kts | 326° |
| 2026-05-07 14:01 | 51.86432 | 12.72752 | 36012 ft | 447 kts | 326° |
| 2026-05-07 14:02 | 51.91729 | 12.67217 | 36019 ft | 447 kts | 326° |
| 2026-05-07 14:02 | 51.97050 | 12.61640 | 36005 ft | 447 kts | 326° |
| 2026-05-07 14:03 | 52.02324 | 12.56096 | 36015 ft | 447 kts | 326° |
| 2026-05-07 14:03 | 52.07630 | 12.50504 | 35984 ft | 447 kts | 326° |
| 2026-05-07 14:03 | 52.10334 | 12.47648 | 35775 ft | 446 kts | 326° |
| 2026-05-07 14:04 | 52.12917 | 12.44915 | 35577 ft | 443 kts | 326° |
| 2026-05-07 14:04 | 52.15667 | 12.42001 | 35369 ft | 441 kts | 326° |
| 2026-05-07 14:04 | 52.18294 | 12.39213 | 35162 ft | 439 kts | 326° |
| 2026-05-07 14:04 | 52.20926 | 12.36416 | 35024 ft | 436 kts | 326° |
| 2026-05-07 14:05 | 52.23453 | 12.33728 | 35017 ft | 435 kts | 326° |
| 2026-05-07 14:05 | 52.28557 | 12.28285 | 35022 ft | 434 kts | 326° |
| 2026-05-07 14:06 | 52.33713 | 12.22772 | 35034 ft | 438 kts | 326° |
| 2026-05-07 14:06 | 52.38921 | 12.17190 | 34824 ft | 441 kts | 326° |
| 2026-05-07 14:06 | 52.41513 | 12.14404 | 34624 ft | 439 kts | 326° |
| 2026-05-07 14:07 | 52.44093 | 12.11626 | 34427 ft | 437 kts | 326° |
| 2026-05-07 14:07 | 52.46669 | 12.08849 | 34232 ft | 435 kts | 326° |
| 2026-05-07 14:07 | 52.49245 | 12.06067 | 34041 ft | 433 kts | 326° |
| 2026-05-07 14:07 | 52.51782 | 12.03324 | 33851 ft | 432 kts | 326° |
| 2026-05-07 14:08 | 52.54340 | 12.00555 | 33663 ft | 432 kts | 326° |
| 2026-05-07 14:08 | 52.56895 | 11.97784 | 33471 ft | 433 kts | 326° |
| 2026-05-07 14:08 | 52.59524 | 11.94928 | 33273 ft | 433 kts | 326° |
| 2026-05-07 14:08 | 52.62143 | 11.92081 | 33050 ft | 433 kts | 326° |
| 2026-05-07 14:09 | 52.64618 | 11.89212 | 32712 ft | 434 kts | 323° |
| 2026-05-07 14:09 | 52.67109 | 11.86115 | 32158 ft | 435 kts | 322° |
| 2026-05-07 14:09 | 52.69516 | 11.83067 | 31517 ft | 436 kts | 322° |
| 2026-05-07 14:09 | 52.71940 | 11.79985 | 30769 ft | 438 kts | 321° |
| 2026-05-07 14:10 | 52.74325 | 11.76949 | 30249 ft | 433 kts | 321° |
| 2026-05-07 14:10 | 52.76786 | 11.73815 | 29760 ft | 427 kts | 321° |
| 2026-05-07 14:10 | 52.79219 | 11.70719 | 29276 ft | 421 kts | 321° |
| 2026-05-07 14:10 | 52.81610 | 11.67670 | 28797 ft | 415 kts | 321° |
| 2026-05-07 14:11 | 52.83935 | 11.64702 | 28330 ft | 410 kts | 321° |
| 2026-05-07 14:11 | 52.86290 | 11.61690 | 27850 ft | 404 kts | 321° |
| 2026-05-07 14:11 | 52.88580 | 11.58757 | 27380 ft | 399 kts | 321° |
| 2026-05-07 14:11 | 52.90863 | 11.55832 | 26901 ft | 394 kts | 321° |
| 2026-05-07 14:12 | 52.93211 | 11.52820 | 26414 ft | 388 kts | 321° |
| 2026-05-07 14:12 | 52.95458 | 11.49938 | 25947 ft | 383 kts | 321° |
| 2026-05-07 14:12 | 52.97592 | 11.47195 | 25503 ft | 379 kts | 321° |
| 2026-05-07 14:12 | 52.99763 | 11.44405 | 25048 ft | 374 kts | 321° |
| 2026-05-07 14:13 | 53.01950 | 11.41585 | 24588 ft | 370 kts | 321° |
| 2026-05-07 14:13 | 53.04076 | 11.38842 | 24138 ft | 366 kts | 321° |
| 2026-05-07 14:13 | 53.06185 | 11.36122 | 23701 ft | 362 kts | 321° |
| 2026-05-07 14:13 | 53.08206 | 11.33523 | 23279 ft | 359 kts | 321° |
| 2026-05-07 14:14 | 53.10192 | 11.30970 | 22856 ft | 356 kts | 321° |
| 2026-05-07 14:14 | 53.12172 | 11.28468 | 22435 ft | 354 kts | 323° |
| 2026-05-07 14:14 | 53.14195 | 11.26100 | 22007 ft | 351 kts | 324° |
| 2026-05-07 14:14 | 53.16249 | 11.23738 | 21573 ft | 349 kts | 324° |
| 2026-05-07 14:15 | 53.18275 | 11.21409 | 21145 ft | 347 kts | 324° |
| 2026-05-07 14:15 | 53.20304 | 11.19073 | 20718 ft | 345 kts | 324° |
| 2026-05-07 14:15 | 53.22454 | 11.16591 | 20254 ft | 343 kts | 324° |
| 2026-05-07 14:15 | 53.24629 | 11.14075 | 19784 ft | 342 kts | 324° |
| 2026-05-07 14:16 | 53.26677 | 11.11705 | 19350 ft | 340 kts | 324° |
| 2026-05-07 14:16 | 53.28733 | 11.09323 | 18904 ft | 338 kts | 324° |
| 2026-05-07 14:16 | 53.30799 | 11.06930 | 18463 ft | 336 kts | 324° |
| 2026-05-07 14:16 | 53.32933 | 11.04463 | 18024 ft | 334 kts | 325° |
| 2026-05-07 14:17 | 53.34965 | 11.02115 | 17610 ft | 332 kts | 325° |
| 2026-05-07 14:17 | 53.36979 | 10.99775 | 17172 ft | 330 kts | 324° |
| 2026-05-07 14:17 | 53.38928 | 10.97446 | 16708 ft | 330 kts | 324° |
| 2026-05-07 14:17 | 53.40913 | 10.95025 | 16231 ft | 330 kts | 324° |
| 2026-05-07 14:18 | 53.42925 | 10.92653 | 15775 ft | 329 kts | 325° |
| 2026-05-07 14:18 | 53.44901 | 10.90332 | 15339 ft | 327 kts | 325° |
| 2026-05-07 14:18 | 53.46857 | 10.88030 | 14909 ft | 326 kts | 325° |
| 2026-05-07 14:18 | 53.48805 | 10.85733 | 14497 ft | 324 kts | 325° |
| 2026-05-07 14:19 | 53.50673 | 10.83526 | 14087 ft | 322 kts | 325° |
| 2026-05-07 14:19 | 53.52557 | 10.81301 | 13683 ft | 319 kts | 325° |
| 2026-05-07 14:19 | 53.54433 | 10.79137 | 13243 ft | 319 kts | 326° |
| 2026-05-07 14:19 | 53.56388 | 10.76908 | 12752 ft | 318 kts | 326° |
| 2026-05-07 14:20 | 53.58222 | 10.74828 | 12308 ft | 317 kts | 326° |
| 2026-05-07 14:20 | 53.60001 | 10.72733 | 11902 ft | 316 kts | 325° |
| 2026-05-07 14:20 | 53.61792 | 10.70559 | 11461 ft | 314 kts | 324° |
| 2026-05-07 14:20 | 53.63374 | 10.67928 | 10946 ft | 316 kts | 302° |
| 2026-05-07 14:21 | 53.64026 | 10.64354 | 10434 ft | 315 kts | 273° |
| 2026-05-07 14:21 | 53.63646 | 10.60775 | 10064 ft | 311 kts | 248° |
| 2026-05-07 14:21 | 53.62715 | 10.57474 | 9847 ft | 302 kts | 245° |
| 2026-05-07 14:21 | 53.61847 | 10.54254 | 9598 ft | 294 kts | 247° |
| 2026-05-07 14:22 | 53.61063 | 10.51088 | 9325 ft | 288 kts | 249° |
| 2026-05-07 14:22 | 53.60358 | 10.47931 | 9053 ft | 288 kts | 252° |
| 2026-05-07 14:22 | 53.59740 | 10.44766 | 8823 ft | 287 kts | 253° |
| 2026-05-07 14:22 | 53.59143 | 10.41539 | 8687 ft | 287 kts | 254° |
| 2026-05-07 14:23 | 53.58564 | 10.38321 | 8523 ft | 284 kts | 254° |
| 2026-05-07 14:23 | 53.58009 | 10.35205 | 8318 ft | 276 kts | 254° |
| 2026-05-07 14:23 | 53.57462 | 10.32143 | 8043 ft | 271 kts | 253° |
| 2026-05-07 14:23 | 53.56881 | 10.29113 | 7567 ft | 275 kts | 251° |
| 2026-05-07 14:24 | 53.56274 | 10.26057 | 7070 ft | 279 kts | 252° |
| 2026-05-07 14:24 | 53.55668 | 10.22967 | 6582 ft | 282 kts | 252° |
| 2026-05-07 14:24 | 53.55055 | 10.19830 | 6091 ft | 284 kts | 251° |
| 2026-05-07 14:24 | 53.54412 | 10.16688 | 5632 ft | 286 kts | 250° |
| 2026-05-07 14:25 | 53.53733 | 10.13566 | 5187 ft | 287 kts | 249° |
| 2026-05-07 14:25 | 53.53034 | 10.10414 | 4801 ft | 286 kts | 251° |
| 2026-05-07 14:25 | 53.52440 | 10.07254 | 4471 ft | 282 kts | 254° |
| 2026-05-07 14:25 | 53.51890 | 10.04137 | 4175 ft | 278 kts | 253° |
| 2026-05-07 14:26 | 53.51331 | 10.01080 | 3970 ft | 270 kts | 253° |
| 2026-05-07 14:26 | 53.50777 | 9.98166 | 3920 ft | 256 kts | 252° |
| 2026-05-07 14:26 | 53.50194 | 9.95427 | 3872 ft | 245 kts | 244° |
| 2026-05-07 14:26 | 53.49297 | 9.92975 | 3932 ft | 245 kts | 230° |
| 2026-05-07 14:27 | 53.48207 | 9.90792 | 3971 ft | 245 kts | 229° |
| 2026-05-07 14:27 | 53.47091 | 9.88543 | 4019 ft | 262 kts | 230° |
| 2026-05-07 14:27 | 53.45969 | 9.86244 | 4079 ft | 248 kts | 230° |
| 2026-05-07 14:27 | 53.44895 | 9.83999 | 4057 ft | 245 kts | 231° |
| 2026-05-07 14:28 | 53.43850 | 9.81772 | 4028 ft | 245 kts | 231° |
| 2026-05-07 14:28 | 53.42816 | 9.79521 | 3977 ft | 237 kts | 233° |
| 2026-05-07 14:28 | 53.42123 | 9.77093 | 3798 ft | 226 kts | 260° |
| 2026-05-07 14:28 | 53.42234 | 9.74602 | 3549 ft | 211 kts | 291° |
| 2026-05-07 14:29 | 53.42994 | 9.72598 | 3220 ft | 199 kts | 316° |
| 2026-05-07 14:29 | 53.43905 | 9.70971 | 3062 ft | 184 kts | 317° |
| 2026-05-07 14:29 | 53.44757 | 9.69496 | 2969 ft | 168 kts | 319° |
| 2026-05-07 14:29 | 53.45648 | 9.68407 | 2869 ft | 156 kts | 347° |
| 2026-05-07 14:30 | 53.46692 | 9.68213 | 2857 ft | 150 kts | 13° |
| 2026-05-07 14:30 | 53.47675 | 9.68784 | 2926 ft | 150 kts | 32° |
| 2026-05-07 14:30 | 53.48544 | 9.69767 | 3005 ft | 149 kts | 43° |
| 2026-05-07 14:30 | 53.49282 | 9.70972 | 3070 ft | 148 kts | 52° |
| 2026-05-07 14:31 | 53.49913 | 9.72297 | 3083 ft | 144 kts | 53° |
| 2026-05-07 14:31 | 53.50541 | 9.73619 | 3081 ft | 139 kts | 52° |
| 2026-05-07 14:31 | 53.51102 | 9.74791 | 2961 ft | 127 kts | 52° |
| 2026-05-07 14:31 | 53.51671 | 9.75969 | 2867 ft | 132 kts | 52° |
| 2026-05-07 14:32 | 53.52282 | 9.77189 | 2914 ft | 136 kts | 51° |
| 2026-05-07 14:32 | 53.52903 | 9.78413 | 2958 ft | 139 kts | 50° |
| 2026-05-07 14:32 | 53.53540 | 9.79622 | 2852 ft | 138 kts | 50° |
| 2026-05-07 14:32 | 53.54158 | 9.80860 | 2627 ft | 144 kts | 51° |
| 2026-05-07 14:33 | 53.54801 | 9.82128 | 2447 ft | 140 kts | 51° |
| 2026-05-07 14:33 | 53.55434 | 9.83358 | 2201 ft | 136 kts | 52° |
| 2026-05-07 14:33 | 53.56016 | 9.84553 | 1893 ft | 130 kts | 52° |
| 2026-05-07 14:33 | 53.56588 | 9.85735 | 1636 ft | 132 kts | 53° |
| 2026-05-07 14:34 | 53.57182 | 9.86960 | 1507 ft | 137 kts | 52° |
| 2026-05-07 14:34 | 53.57779 | 9.88204 | 1403 ft | 139 kts | 52° |
| 2026-05-07 14:34 | 53.58419 | 9.89487 | 1235 ft | 142 kts | 51° |
| 2026-05-07 14:34 | 53.59051 | 9.90736 | 997 ft | 140 kts | 53° |
| 2026-05-07 14:35 | 53.59665 | 9.92001 | 790 ft | 136 kts | 51° |
| 2026-05-07 14:35 | 53.60266 | 9.93214 | 610 ft | 137 kts | 50° |
| 2026-05-07 14:35 | 53.60883 | 9.94453 | 446 ft | 137 kts | 52° |
| 2026-05-07 14:35 | 53.61484 | 9.95684 | 255 ft | 137 kts | 51° |
| 2026-05-07 14:36 | 53.62139 | 9.96987 | 409 ft | 154 kts | 49° |
| 2026-05-07 14:36 | 53.62881 | 9.98307 | 1099 ft | 167 kts | 47° |
| 2026-05-07 14:36 | 53.63728 | 9.99785 | 1799 ft | 188 kts | 49° |
| 2026-05-07 14:36 | 53.64577 | 10.01448 | 2481 ft | 192 kts | 52° |
| 2026-05-07 14:37 | 53.65430 | 10.03287 | 2994 ft | 206 kts | 54° |
| 2026-05-07 14:37 | 53.66903 | 10.07548 | 3851 ft | 219 kts | 86° |
| 2026-05-07 14:37 | 53.66487 | 10.09992 | 3894 ft | 223 kts | 125° |
| 2026-05-07 14:38 | 53.65216 | 10.11468 | 3944 ft | 232 kts | 160° |
| 2026-05-07 14:38 | 53.63605 | 10.11727 | 3999 ft | 237 kts | 184° |
| 2026-05-07 14:38 | 53.62004 | 10.10934 | 4053 ft | 242 kts | 205° |
| 2026-05-07 14:38 | 53.60641 | 10.09290 | 4071 ft | 244 kts | 221° |
| 2026-05-07 14:39 | 53.59414 | 10.07284 | 4044 ft | 242 kts | 224° |
| 2026-05-07 14:39 | 53.58275 | 10.05283 | 3941 ft | 231 kts | 224° |
| 2026-05-07 14:39 | 53.57125 | 10.03462 | 3850 ft | 227 kts | 219° |
| 2026-05-07 14:39 | 53.55921 | 10.01749 | 3900 ft | 228 kts | 218° |
| 2026-05-07 14:40 | 53.54689 | 10.00066 | 3953 ft | 228 kts | 215° |
| 2026-05-07 14:40 | 53.53437 | 9.98442 | 3977 ft | 228 kts | 216° |
| 2026-05-07 14:40 | 53.52203 | 9.96807 | 3999 ft | 228 kts | 216° |
| 2026-05-07 14:40 | 53.50929 | 9.95181 | 4014 ft | 228 kts | 214° |
| 2026-05-07 14:41 | 53.49689 | 9.93528 | 4020 ft | 228 kts | 219° |
| 2026-05-07 14:41 | 53.48547 | 9.91679 | 4026 ft | 229 kts | 226° |
| 2026-05-07 14:41 | 53.47527 | 9.89630 | 4024 ft | 229 kts | 232° |
| 2026-05-07 14:41 | 53.46566 | 9.87496 | 4024 ft | 229 kts | 233° |
| 2026-05-07 14:42 | 53.45595 | 9.85358 | 4026 ft | 229 kts | 231° |
| 2026-05-07 14:42 | 53.44585 | 9.83328 | 4031 ft | 229 kts | 230° |
| 2026-05-07 14:42 | 53.43605 | 9.81244 | 4042 ft | 228 kts | 232° |
| 2026-05-07 14:42 | 53.42627 | 9.79128 | 4031 ft | 228 kts | 231° |
| 2026-05-07 14:43 | 53.41651 | 9.77034 | 4009 ft | 228 kts | 231° |
| 2026-05-07 14:43 | 53.40671 | 9.74958 | 3981 ft | 228 kts | 231° |
| 2026-05-07 14:43 | 53.39678 | 9.72890 | 3973 ft | 228 kts | 230° |
| 2026-05-07 14:43 | 53.38677 | 9.70841 | 3959 ft | 227 kts | 230° |
| 2026-05-07 14:44 | 53.37674 | 9.68820 | 3944 ft | 227 kts | 229° |
| 2026-05-07 14:44 | 53.36842 | 9.66591 | 3911 ft | 227 kts | 259° |
| 2026-05-07 14:44 | 53.36974 | 9.64017 | 3939 ft | 223 kts | 299° |
| 2026-05-07 14:44 | 53.37938 | 9.62059 | 4009 ft | 217 kts | 324° |
| 2026-05-07 14:45 | 53.39141 | 9.60501 | 4070 ft | 217 kts | 327° |
| 2026-05-07 14:45 | 53.40424 | 9.59178 | 3999 ft | 214 kts | 343° |
| 2026-05-07 14:45 | 53.41859 | 9.58817 | 3854 ft | 207 kts | 11° |
| 2026-05-07 14:45 | 53.43180 | 9.59605 | 3710 ft | 203 kts | 34° |
| 2026-05-07 14:46 | 53.44293 | 9.61018 | 3649 ft | 196 kts | 43° |
| 2026-05-07 14:46 | 53.45137 | 9.62633 | 3718 ft | 172 kts | 51° |
| 2026-05-07 14:46 | 53.45879 | 9.64092 | 3566 ft | 160 kts | 50° |
| 2026-05-07 14:46 | 53.46605 | 9.65449 | 3313 ft | 154 kts | 51° |
| 2026-05-07 14:47 | 53.47288 | 9.66760 | 3163 ft | 146 kts | 50° |
| 2026-05-07 14:47 | 53.47975 | 9.68111 | 3153 ft | 160 kts | 52° |
| 2026-05-07 14:47 | 53.48694 | 9.69608 | 3230 ft | 164 kts | 53° |
| 2026-05-07 14:47 | 53.49387 | 9.71049 | 3221 ft | 155 kts | 52° |
| 2026-05-07 14:48 | 53.50082 | 9.72455 | 3129 ft | 156 kts | 51° |
| 2026-05-07 14:48 | 53.50798 | 9.73861 | 3094 ft | 162 kts | 51° |
| 2026-05-07 14:48 | 53.51521 | 9.75331 | 3164 ft | 167 kts | 52° |
| 2026-05-07 14:48 | 53.52255 | 9.76886 | 3159 ft | 171 kts | 52° |
| 2026-05-07 14:49 | 53.52998 | 9.78421 | 2957 ft | 166 kts | 52° |
| 2026-05-07 14:49 | 53.53721 | 9.79900 | 2665 ft | 162 kts | 52° |
| 2026-05-07 14:49 | 53.54438 | 9.81355 | 2401 ft | 161 kts | 51° |
| 2026-05-07 14:49 | 53.55148 | 9.82790 | 2216 ft | 159 kts | 52° |
| 2026-05-07 14:50 | 53.55848 | 9.84207 | 2039 ft | 159 kts | 52° |
| 2026-05-07 14:50 | 53.56520 | 9.85558 | 1863 ft | 144 kts | 52° |
| 2026-05-07 14:50 | 53.57145 | 9.86842 | 1566 ft | 141 kts | 53° |
| 2026-05-07 14:50 | 53.57761 | 9.88116 | 1311 ft | 139 kts | 51° |
| 2026-05-07 14:51 | 53.58370 | 9.89368 | 1133 ft | 138 kts | 52° |
| 2026-05-07 14:51 | 53.58967 | 9.90624 | 958 ft | 137 kts | 50° |
| 2026-05-07 14:51 | 53.59585 | 9.91827 | 824 ft | 135 kts | 50° |
| 2026-05-07 14:51 | 53.60190 | 9.93067 | 659 ft | 136 kts | 51° |
| 2026-05-07 14:52 | 53.60802 | 9.94305 | 469 ft | 139 kts | 50° |
| 2026-05-07 14:52 | 53.61415 | 9.95534 | 273 ft | 136 kts | 50° |
| 2026-05-07 14:52 | 53.62008 | 9.96744 | 108 ft | 134 kts | 49° |
| 2026-05-07 14:52 | 53.62569 | 9.97882 | 62 ft | 109 kts | 50° |
| 2026-05-07 14:53 | 53.62947 | 9.98650 | 62 ft | 68 kts | 49° |
| 2026-05-07 14:53 | 53.63226 | 9.99211 | 62 ft | 42 kts | 54° |
| 2026-05-07 14:53 | 53.63287 | 9.99518 | 62 ft | 24 kts | 91° |
| 2026-05-07 14:53 | 53.63280 | 9.99648 | 62 ft | 4 kts | 97° |
| 2026-05-07 14:54 | 53.63282 | 9.99724 | 62 ft | 9 kts | 74° |
| 2026-05-07 14:54 | 53.63316 | 9.99834 | 62 ft | 11 kts | 56° |
| 2026-05-07 14:54 | 53.63366 | 9.99941 | 62 ft | 12 kts | 49° |
| 2026-05-07 14:54 | 53.63421 | 10.00050 | 62 ft | 12 kts | 59° |
| 2026-05-07 14:55 | 53.63405 | 10.00151 | 62 ft | 7 kts | 155° |
| 2026-05-07 14:55 | 53.63350 | 10.00166 | 62 ft | 9 kts | 175° |
| 2026-05-07 14:55 | 53.63298 | 10.00188 | 62 ft | 6 kts | 128° |
| 2026-05-07 14:55 | 53.63292 | 10.00276 | 62 ft | 7 kts | 88° |
| 2026-05-07 14:56 | 53.63294 | 10.00339 | 62 ft | 3 kts | 87° |
| 2026-05-07 14:56 | 53.63294 | 10.00348 | 62 ft | 0 kts | 88° |